sensor_id;sensor_type;location;lat;lon;timestamp;temperature;humidity
21666;DHT22;10994;45.486;9.190;2023-01-19T00:00:07;6.70;99.90
21666;DHT22;10994;45.486;9.190;2023-01-19T00:02:35;6.60;99.90
21666;DHT22;10994;45.486;9.190;2023-01-19T00:05:02;6.60;99.90
21666;DHT22;10994;45.486;9.190;2023-01-19T00:07:31;6.70;99.90
21666;DHT22;10994;45.486;9.190;2023-01-19T00:09:57;6.80;99.90
21666;DHT22;10994;45.486;9.190;2023-01-19T00:12:23;6.90;99.90
21666;DHT22;10994;45.486;9.190;2023-01-19T00:14:49;6.90;99.90
21666;DHT22;10994;45.486;9.190;2023-01-19T00:17:14;6.70;99.90
21666;DHT22;10994;45.486;9.190;2023-01-19T00:19:40;6.80;99.90
21666;DHT22;10994;45.486;9.190;2023-01-19T00:22:06;6.60;99.90
21666;DHT22;10994;45.486;9.190;2023-01-19T00:24:32;6.50;99.90
21666;DHT22;10994;45.486;9.190;2023-01-19T00:26:57;6.50;99.90
21666;DHT22;10994;45.486;9.190;2023-01-19T00:29:23;6.60;99.90
21666;DHT22;10994;45.486;9.190;2023-01-19T00:31:49;6.50;99.90
21666;DHT22;10994;45.486;9.190;2023-01-19T00:34:15;6.50;99.90
21666;DHT22;10994;45.486;9.190;2023-01-19T00:36:41;6.60;99.90
21666;DHT22;10994;45.486;9.190;2023-01-19T00:39:07;6.70;99.90
21666;DHT22;10994;45.486;9.190;2023-01-19T00:41:33;6.70;99.90
21666;DHT22;10994;45.486;9.190;2023-01-19T00:44:17;6.60;99.90
21666;DHT22;10994;45.486;9.190;2023-01-19T00:46:43;6.00;99.90
21666;DHT22;10994;45.486;9.190;2023-01-19T00:49:09;6.20;99.90
21666;DHT22;10994;45.486;9.190;2023-01-19T00:51:34;6.30;99.90
21666;DHT22;10994;45.486;9.190;2023-01-19T00:54:00;6.50;99.90
21666;DHT22;10994;45.486;9.190;2023-01-19T00:56:32;6.30;99.90
21666;DHT22;10994;45.486;9.190;2023-01-19T00:58:58;6.10;99.90
21666;DHT22;10994;45.486;9.190;2023-01-19T01:01:25;5.80;99.90
21666;DHT22;10994;45.486;9.190;2023-01-19T01:03:50;5.80;99.90
21666;DHT22;10994;45.486;9.190;2023-01-19T01:06:19;5.80;99.90
21666;DHT22;10994;45.486;9.190;2023-01-19T01:08:44;6.10;99.90
21666;DHT22;10994;45.486;9.190;2023-01-19T01:11:10;6.10;99.90
21666;DHT22;10994;45.486;9.190;2023-01-19T01:13:36;6.00;99.90
21666;DHT22;10994;45.486;9.190;2023-01-19T01:16:02;5.90;99.90
21666;DHT22;10994;45.486;9.190;2023-01-19T01:18:27;5.90;99.90
21666;DHT22;10994;45.486;9.190;2023-01-19T01:21:03;5.90;99.90
21666;DHT22;10994;45.486;9.190;2023-01-19T01:23:29;6.00;99.90
21666;DHT22;10994;45.486;9.190;2023-01-19T01:25:54;6.00;99.90
21666;DHT22;10994;45.486;9.190;2023-01-19T01:28:20;5.80;99.90
21666;DHT22;10994;45.486;9.190;2023-01-19T01:30:46;5.70;99.90
21666;DHT22;10994;45.486;9.190;2023-01-19T01:33:12;5.90;99.90
21666;DHT22;10994;45.486;9.190;2023-01-19T01:35:40;5.80;99.90
21666;DHT22;10994;45.486;9.190;2023-01-19T01:38:08;5.90;99.90
21666;DHT22;10994;45.486;9.190;2023-01-19T01:40:34;5.70;99.90
21666;DHT22;10994;45.486;9.190;2023-01-19T01:43:03;5.90;99.90
21666;DHT22;10994;45.486;9.190;2023-01-19T01:45:34;6.10;99.90
21666;DHT22;10994;45.486;9.190;2023-01-19T01:48:10;5.90;99.90
21666;DHT22;10994;45.486;9.190;2023-01-19T01:51:01;5.60;99.90
21666;DHT22;10994;45.486;9.190;2023-01-19T01:53:48;5.70;99.90
21666;DHT22;10994;45.486;9.190;2023-01-19T01:56:20;5.60;99.90
21666;DHT22;10994;45.486;9.190;2023-01-19T01:58:48;5.70;99.90
21666;DHT22;10994;45.486;9.190;2023-01-19T02:01:14;5.70;99.90
21666;DHT22;10994;45.486;9.190;2023-01-19T02:03:58;6.00;99.90
21666;DHT22;10994;45.486;9.190;2023-01-19T02:06:25;5.70;99.90
21666;DHT22;10994;45.486;9.190;2023-01-19T02:08:56;5.70;99.90
21666;DHT22;10994;45.486;9.190;2023-01-19T02:11:42;5.80;99.90
21666;DHT22;10994;45.486;9.190;2023-01-19T02:14:26;5.80;99.90
21666;DHT22;10994;45.486;9.190;2023-01-19T02:16:52;6.00;99.90
21666;DHT22;10994;45.486;9.190;2023-01-19T02:19:25;6.00;99.90
21666;DHT22;10994;45.486;9.190;2023-01-19T02:22:03;5.80;99.90
21666;DHT22;10994;45.486;9.190;2023-01-19T02:24:32;5.80;99.90
21666;DHT22;10994;45.486;9.190;2023-01-19T02:26:58;5.60;99.90
21666;DHT22;10994;45.486;9.190;2023-01-19T02:29:25;5.70;99.90
21666;DHT22;10994;45.486;9.190;2023-01-19T02:31:52;5.90;99.90
21666;DHT22;10994;45.486;9.190;2023-01-19T02:34:20;6.20;99.90
21666;DHT22;10994;45.486;9.190;2023-01-19T02:36:55;6.30;99.90
21666;DHT22;10994;45.486;9.190;2023-01-19T02:39:28;6.20;99.90
21666;DHT22;10994;45.486;9.190;2023-01-19T02:42:00;6.40;99.90
21666;DHT22;10994;45.486;9.190;2023-01-19T02:44:26;6.50;99.90
21666;DHT22;10994;45.486;9.190;2023-01-19T02:46:53;6.10;99.90
21666;DHT22;10994;45.486;9.190;2023-01-19T02:49:19;5.80;99.90
21666;DHT22;10994;45.486;9.190;2023-01-19T02:51:44;5.90;99.90
21666;DHT22;10994;45.486;9.190;2023-01-19T02:54:27;6.00;99.90
21666;DHT22;10994;45.486;9.190;2023-01-19T03:02:48;5.70;99.90
21666;DHT22;10994;45.486;9.190;2023-01-19T03:05:31;5.60;99.90
21666;DHT22;10994;45.486;9.190;2023-01-19T03:10:53;5.70;99.90
21666;DHT22;10994;45.486;9.190;2023-01-19T03:16:29;5.70;99.90
21666;DHT22;10994;45.486;9.190;2023-01-19T03:19:03;5.80;99.90
21666;DHT22;10994;45.486;9.190;2023-01-19T03:21:33;5.80;99.90
21666;DHT22;10994;45.486;9.190;2023-01-19T03:24:02;5.70;99.90
21666;DHT22;10994;45.486;9.190;2023-01-19T03:26:31;5.80;99.90
21666;DHT22;10994;45.486;9.190;2023-01-19T03:28:59;5.60;99.90
21666;DHT22;10994;45.486;9.190;2023-01-19T03:31:29;5.50;99.90
21666;DHT22;10994;45.486;9.190;2023-01-19T03:33:59;5.70;99.90
21666;DHT22;10994;45.486;9.190;2023-01-19T03:36:39;5.70;99.90
21666;DHT22;10994;45.486;9.190;2023-01-19T03:39:07;5.60;99.90
21666;DHT22;10994;45.486;9.190;2023-01-19T03:41:34;5.50;99.90
21666;DHT22;10994;45.486;9.190;2023-01-19T03:44:02;5.70;99.90
21666;DHT22;10994;45.486;9.190;2023-01-19T03:46:31;5.70;99.90
21666;DHT22;10994;45.486;9.190;2023-01-19T03:48:58;5.70;99.90
21666;DHT22;10994;45.486;9.190;2023-01-19T03:51:24;5.70;99.90
21666;DHT22;10994;45.486;9.190;2023-01-19T03:53:50;5.80;99.90
21666;DHT22;10994;45.486;9.190;2023-01-19T03:56:19;5.80;99.90
21666;DHT22;10994;45.486;9.190;2023-01-19T03:58:46;5.80;99.90
21666;DHT22;10994;45.486;9.190;2023-01-19T04:01:12;5.90;99.90
21666;DHT22;10994;45.486;9.190;2023-01-19T04:03:38;5.90;99.90
21666;DHT22;10994;45.486;9.190;2023-01-19T04:06:04;5.80;99.90
21666;DHT22;10994;45.486;9.190;2023-01-19T04:08:30;5.80;99.90
21666;DHT22;10994;45.486;9.190;2023-01-19T04:10:57;6.00;99.90
21666;DHT22;10994;45.486;9.190;2023-01-19T04:13:23;6.10;99.90
21666;DHT22;10994;45.486;9.190;2023-01-19T04:15:48;6.20;99.90
21666;DHT22;10994;45.486;9.190;2023-01-19T04:18:19;6.10;99.90
21666;DHT22;10994;45.486;9.190;2023-01-19T04:20:45;6.10;99.90
21666;DHT22;10994;45.486;9.190;2023-01-19T04:23:10;6.10;99.90
21666;DHT22;10994;45.486;9.190;2023-01-19T04:25:36;6.00;99.90
21666;DHT22;10994;45.486;9.190;2023-01-19T04:28:01;6.20;99.90
21666;DHT22;10994;45.486;9.190;2023-01-19T04:30:27;6.20;99.90
21666;DHT22;10994;45.486;9.190;2023-01-19T04:32:53;6.20;99.90
21666;DHT22;10994;45.486;9.190;2023-01-19T04:35:20;6.20;99.90
21666;DHT22;10994;45.486;9.190;2023-01-19T04:37:47;6.00;99.90
21666;DHT22;10994;45.486;9.190;2023-01-19T04:40:13;6.10;99.90
21666;DHT22;10994;45.486;9.190;2023-01-19T04:42:42;6.40;99.90
21666;DHT22;10994;45.486;9.190;2023-01-19T04:45:10;6.30;99.90
21666;DHT22;10994;45.486;9.190;2023-01-19T04:47:36;6.30;99.90
21666;DHT22;10994;45.486;9.190;2023-01-19T04:50:02;6.40;99.90
21666;DHT22;10994;45.486;9.190;2023-01-19T04:52:33;6.50;99.90
21666;DHT22;10994;45.486;9.190;2023-01-19T04:55:00;6.50;99.90
21666;DHT22;10994;45.486;9.190;2023-01-19T04:57:26;6.10;99.90
21666;DHT22;10994;45.486;9.190;2023-01-19T04:59:52;6.00;99.90
21666;DHT22;10994;45.486;9.190;2023-01-19T05:02:17;6.00;99.90
21666;DHT22;10994;45.486;9.190;2023-01-19T05:04:43;6.20;99.90
21666;DHT22;10994;45.486;9.190;2023-01-19T05:07:08;6.40;99.90
21666;DHT22;10994;45.486;9.190;2023-01-19T05:09:34;6.50;99.90
21666;DHT22;10994;45.486;9.190;2023-01-19T05:12:00;6.40;99.90
21666;DHT22;10994;45.486;9.190;2023-01-19T05:14:25;6.40;99.90
21666;DHT22;10994;45.486;9.190;2023-01-19T05:16:51;6.50;99.90
21666;DHT22;10994;45.486;9.190;2023-01-19T05:19:17;6.30;99.90
21666;DHT22;10994;45.486;9.190;2023-01-19T05:21:42;6.10;99.90
21666;DHT22;10994;45.486;9.190;2023-01-19T05:24:08;6.10;99.90
21666;DHT22;10994;45.486;9.190;2023-01-19T05:26:33;6.20;99.90
21666;DHT22;10994;45.486;9.190;2023-01-19T05:28:59;6.20;99.90
21666;DHT22;10994;45.486;9.190;2023-01-19T05:31:25;6.00;99.90
21666;DHT22;10994;45.486;9.190;2023-01-19T05:33:50;5.90;99.90
21666;DHT22;10994;45.486;9.190;2023-01-19T05:36:16;5.80;99.90
21666;DHT22;10994;45.486;9.190;2023-01-19T05:38:42;5.70;99.90
21666;DHT22;10994;45.486;9.190;2023-01-19T05:41:07;5.70;99.90
21666;DHT22;10994;45.486;9.190;2023-01-19T05:43:33;5.90;99.90
21666;DHT22;10994;45.486;9.190;2023-01-19T05:45:58;5.90;99.90
21666;DHT22;10994;45.486;9.190;2023-01-19T05:48:24;6.10;99.90
21666;DHT22;10994;45.486;9.190;2023-01-19T05:50:50;6.00;99.90
21666;DHT22;10994;45.486;9.190;2023-01-19T05:53:15;6.00;99.90
21666;DHT22;10994;45.486;9.190;2023-01-19T05:55:41;6.10;99.90
21666;DHT22;10994;45.486;9.190;2023-01-19T05:58:07;6.20;99.90
21666;DHT22;10994;45.486;9.190;2023-01-19T06:00:32;6.30;99.90
21666;DHT22;10994;45.486;9.190;2023-01-19T06:02:58;6.20;99.90
21666;DHT22;10994;45.486;9.190;2023-01-19T06:05:25;6.20;99.90
21666;DHT22;10994;45.486;9.190;2023-01-19T06:07:50;6.30;99.90
21666;DHT22;10994;45.486;9.190;2023-01-19T06:10:17;6.40;99.90
21666;DHT22;10994;45.486;9.190;2023-01-19T06:12:42;6.40;99.90
21666;DHT22;10994;45.486;9.190;2023-01-19T06:15:08;6.40;99.90
21666;DHT22;10994;45.486;9.190;2023-01-19T06:17:34;6.60;99.90
21666;DHT22;10994;45.486;9.190;2023-01-19T06:20:00;6.70;99.90
21666;DHT22;10994;45.486;9.190;2023-01-19T06:22:26;6.70;99.90
21666;DHT22;10994;45.486;9.190;2023-01-19T06:24:51;6.70;99.90
21666;DHT22;10994;45.486;9.190;2023-01-19T06:27:17;6.80;99.90
21666;DHT22;10994;45.486;9.190;2023-01-19T06:29:43;6.80;99.90
21666;DHT22;10994;45.486;9.190;2023-01-19T06:32:08;6.80;99.90
21666;DHT22;10994;45.486;9.190;2023-01-19T06:34:34;6.60;99.90
21666;DHT22;10994;45.486;9.190;2023-01-19T06:37:00;6.60;99.90
21666;DHT22;10994;45.486;9.190;2023-01-19T06:39:25;6.70;99.90
21666;DHT22;10994;45.486;9.190;2023-01-19T06:41:51;6.60;99.90
21666;DHT22;10994;45.486;9.190;2023-01-19T06:44:17;6.60;99.90
21666;DHT22;10994;45.486;9.190;2023-01-19T06:46:43;6.80;99.90
21666;DHT22;10994;45.486;9.190;2023-01-19T06:49:09;6.90;99.90
21666;DHT22;10994;45.486;9.190;2023-01-19T06:51:34;6.80;99.90
21666;DHT22;10994;45.486;9.190;2023-01-19T06:54:00;6.80;99.90
21666;DHT22;10994;45.486;9.190;2023-01-19T06:56:26;6.40;99.90
21666;DHT22;10994;45.486;9.190;2023-01-19T06:58:51;5.90;99.90
21666;DHT22;10994;45.486;9.190;2023-01-19T07:01:18;5.70;99.90
21666;DHT22;10994;45.486;9.190;2023-01-19T07:03:44;5.70;99.90
21666;DHT22;10994;45.486;9.190;2023-01-19T07:06:09;5.60;99.90
21666;DHT22;10994;45.486;9.190;2023-01-19T07:08:36;5.90;99.90
21666;DHT22;10994;45.486;9.190;2023-01-19T07:11:04;5.70;99.90
21666;DHT22;10994;45.486;9.190;2023-01-19T07:13:32;5.80;99.90
21666;DHT22;10994;45.486;9.190;2023-01-19T07:15:58;5.50;99.90
21666;DHT22;10994;45.486;9.190;2023-01-19T07:18:27;5.10;99.90
21666;DHT22;10994;45.486;9.190;2023-01-19T07:20:55;5.30;99.90
21666;DHT22;10994;45.486;9.190;2023-01-19T07:23:21;5.40;99.90
21666;DHT22;10994;45.486;9.190;2023-01-19T07:25:46;5.20;99.90
21666;DHT22;10994;45.486;9.190;2023-01-19T07:28:12;5.30;99.90
21666;DHT22;10994;45.486;9.190;2023-01-19T07:30:43;5.40;99.90
21666;DHT22;10994;45.486;9.190;2023-01-19T07:33:11;5.30;99.90
21666;DHT22;10994;45.486;9.190;2023-01-19T07:35:37;5.20;99.90
21666;DHT22;10994;45.486;9.190;2023-01-19T07:38:02;5.50;99.90
21666;DHT22;10994;45.486;9.190;2023-01-19T07:40:28;5.60;99.90
21666;DHT22;10994;45.486;9.190;2023-01-19T07:42:54;5.70;99.90
21666;DHT22;10994;45.486;9.190;2023-01-19T07:45:21;5.40;99.90
21666;DHT22;10994;45.486;9.190;2023-01-19T07:47:48;5.60;99.90
21666;DHT22;10994;45.486;9.190;2023-01-19T07:50:15;5.50;99.90
21666;DHT22;10994;45.486;9.190;2023-01-19T07:52:41;5.60;99.90
21666;DHT22;10994;45.486;9.190;2023-01-19T07:55:07;5.60;99.90
21666;DHT22;10994;45.486;9.190;2023-01-19T07:57:34;5.70;99.90
21666;DHT22;10994;45.486;9.190;2023-01-19T08:00:00;5.50;99.90
21666;DHT22;10994;45.486;9.190;2023-01-19T08:02:26;5.40;99.90
21666;DHT22;10994;45.486;9.190;2023-01-19T08:04:52;5.50;99.90
21666;DHT22;10994;45.486;9.190;2023-01-19T08:07:18;4.90;99.90
21666;DHT22;10994;45.486;9.190;2023-01-19T08:09:43;4.90;99.90
21666;DHT22;10994;45.486;9.190;2023-01-19T08:12:09;5.00;99.90
21666;DHT22;10994;45.486;9.190;2023-01-19T08:14:34;4.90;99.90
21666;DHT22;10994;45.486;9.190;2023-01-19T08:17:01;5.10;99.90
21666;DHT22;10994;45.486;9.190;2023-01-19T08:19:27;5.00;99.90
21666;DHT22;10994;45.486;9.190;2023-01-19T08:21:53;5.10;99.90
21666;DHT22;10994;45.486;9.190;2023-01-19T08:24:20;5.10;99.90
21666;DHT22;10994;45.486;9.190;2023-01-19T08:26:48;5.10;99.90
21666;DHT22;10994;45.486;9.190;2023-01-19T08:29:14;5.00;99.90
21666;DHT22;10994;45.486;9.190;2023-01-19T08:31:40;4.80;99.90
21666;DHT22;10994;45.486;9.190;2023-01-19T08:34:06;4.80;99.90
21666;DHT22;10994;45.486;9.190;2023-01-19T08:36:32;4.60;99.90
21666;DHT22;10994;45.486;9.190;2023-01-19T08:38:58;4.30;99.90
21666;DHT22;10994;45.486;9.190;2023-01-19T08:41:24;4.50;99.90
21666;DHT22;10994;45.486;9.190;2023-01-19T08:43:50;4.70;99.90
21666;DHT22;10994;45.486;9.190;2023-01-19T08:46:15;4.70;99.90
21666;DHT22;10994;45.486;9.190;2023-01-19T08:48:43;4.70;99.90
21666;DHT22;10994;45.486;9.190;2023-01-19T08:51:16;4.60;99.90
21666;DHT22;10994;45.486;9.190;2023-01-19T08:53:42;4.50;99.90
21666;DHT22;10994;45.486;9.190;2023-01-19T08:56:09;4.60;99.90
21666;DHT22;10994;45.486;9.190;2023-01-19T08:58:38;4.70;99.90
21666;DHT22;10994;45.486;9.190;2023-01-19T09:01:05;4.50;99.90
21666;DHT22;10994;45.486;9.190;2023-01-19T09:03:33;4.70;99.90
21666;DHT22;10994;45.486;9.190;2023-01-19T09:05:59;4.50;99.90
21666;DHT22;10994;45.486;9.190;2023-01-19T09:08:25;4.50;99.90
21666;DHT22;10994;45.486;9.190;2023-01-19T09:10:50;4.60;99.90
21666;DHT22;10994;45.486;9.190;2023-01-19T09:13:17;4.70;99.90
21666;DHT22;10994;45.486;9.190;2023-01-19T09:15:43;4.90;99.90
21666;DHT22;10994;45.486;9.190;2023-01-19T09:18:17;5.10;99.90
21666;DHT22;10994;45.486;9.190;2023-01-19T09:20:45;4.80;99.90
21666;DHT22;10994;45.486;9.190;2023-01-19T09:23:12;4.90;99.90
21666;DHT22;10994;45.486;9.190;2023-01-19T09:25:39;4.90;99.90
21666;DHT22;10994;45.486;9.190;2023-01-19T09:28:06;4.80;99.90
21666;DHT22;10994;45.486;9.190;2023-01-19T09:30:34;4.70;99.90
21666;DHT22;10994;45.486;9.190;2023-01-19T09:33:06;4.40;99.90
21666;DHT22;10994;45.486;9.190;2023-01-19T09:35:33;4.30;99.90
21666;DHT22;10994;45.486;9.190;2023-01-19T09:37:59;4.50;99.90
21666;DHT22;10994;45.486;9.190;2023-01-19T09:40:26;4.70;99.90
21666;DHT22;10994;45.486;9.190;2023-01-19T09:42:56;4.60;99.90
21666;DHT22;10994;45.486;9.190;2023-01-19T09:45:59;4.60;99.90
21666;DHT22;10994;45.486;9.190;2023-01-19T09:48:57;4.70;99.90
21666;DHT22;10994;45.486;9.190;2023-01-19T09:54:12;5.10;99.90
21666;DHT22;10994;45.486;9.190;2023-01-19T09:56:39;5.20;99.90
21666;DHT22;10994;45.486;9.190;2023-01-19T09:59:21;5.00;99.90
21666;DHT22;10994;45.486;9.190;2023-01-19T10:04:41;4.90;99.90
21666;DHT22;10994;45.486;9.190;2023-01-19T10:07:36;4.60;99.90
21666;DHT22;10994;45.486;9.190;2023-01-19T10:10:26;4.60;99.90
21666;DHT22;10994;45.486;9.190;2023-01-19T10:13:01;4.70;99.90
21666;DHT22;10994;45.486;9.190;2023-01-19T10:18:21;4.90;99.90
21666;DHT22;10994;45.486;9.190;2023-01-19T10:20:55;5.10;99.90
21666;DHT22;10994;45.486;9.190;2023-01-19T10:23:44;5.30;99.90
21666;DHT22;10994;45.486;9.190;2023-01-19T10:26:17;5.30;99.90
21666;DHT22;10994;45.486;9.190;2023-01-19T10:28:48;5.10;99.90
21666;DHT22;10994;45.486;9.190;2023-01-19T10:31:18;5.00;99.90
21666;DHT22;10994;45.486;9.190;2023-01-19T10:33:48;5.00;99.90
21666;DHT22;10994;45.486;9.190;2023-01-19T10:36:38;5.20;99.90
21666;DHT22;10994;45.486;9.190;2023-01-19T10:39:05;5.50;99.90
21666;DHT22;10994;45.486;9.190;2023-01-19T10:41:49;5.40;99.90
21666;DHT22;10994;45.486;9.190;2023-01-19T10:44:26;5.20;99.90
21666;DHT22;10994;45.486;9.190;2023-01-19T10:46:54;5.40;99.90
21666;DHT22;10994;45.486;9.190;2023-01-19T10:49:37;5.50;99.90
21666;DHT22;10994;45.486;9.190;2023-01-19T10:52:18;5.70;99.90
21666;DHT22;10994;45.486;9.190;2023-01-19T10:54:44;5.60;99.90
21666;DHT22;10994;45.486;9.190;2023-01-19T10:57:40;5.80;99.90
21666;DHT22;10994;45.486;9.190;2023-01-19T11:00:27;5.90;99.90
21666;DHT22;10994;45.486;9.190;2023-01-19T11:02:52;5.50;99.90
21666;DHT22;10994;45.486;9.190;2023-01-19T11:05:27;5.40;99.90
21666;DHT22;10994;45.486;9.190;2023-01-19T11:07:53;5.40;99.90
21666;DHT22;10994;45.486;9.190;2023-01-19T11:10:24;5.60;99.90
21666;DHT22;10994;45.486;9.190;2023-01-19T11:13:08;5.60;99.90
21666;DHT22;10994;45.486;9.190;2023-01-19T11:15:50;5.60;99.90
21666;DHT22;10994;45.486;9.190;2023-01-19T11:18:26;5.70;99.90
21666;DHT22;10994;45.486;9.190;2023-01-19T11:20:54;5.90;99.90
21666;DHT22;10994;45.486;9.190;2023-01-19T11:23:27;5.90;99.90
21666;DHT22;10994;45.486;9.190;2023-01-19T11:25:56;6.00;99.90
21666;DHT22;10994;45.486;9.190;2023-01-19T11:28:50;6.30;99.90
21666;DHT22;10994;45.486;9.190;2023-01-19T11:31:19;6.10;99.90
21666;DHT22;10994;45.486;9.190;2023-01-19T11:34:35;6.30;99.90
21666;DHT22;10994;45.486;9.190;2023-01-19T11:36:55;6.30;99.90
21666;DHT22;10994;45.486;9.190;2023-01-19T11:39:23;6.40;99.90
21666;DHT22;10994;45.486;9.190;2023-01-19T11:41:53;6.30;99.90
21666;DHT22;10994;45.486;9.190;2023-01-19T11:44:23;6.40;99.90
21666;DHT22;10994;45.486;9.190;2023-01-19T11:46:55;6.50;99.90
21666;DHT22;10994;45.486;9.190;2023-01-19T11:49:39;6.30;99.90
21666;DHT22;10994;45.486;9.190;2023-01-19T11:52:34;6.40;99.90
21666;DHT22;10994;45.486;9.190;2023-01-19T11:57:37;6.30;99.90
21666;DHT22;10994;45.486;9.190;2023-01-19T12:05:41;5.80;99.90
21666;DHT22;10994;45.486;9.190;2023-01-19T12:08:17;6.00;99.90
21666;DHT22;10994;45.486;9.190;2023-01-19T12:10:45;6.10;99.90
21666;DHT22;10994;45.486;9.190;2023-01-19T12:13:21;5.80;99.90
21666;DHT22;10994;45.486;9.190;2023-01-19T12:15:51;5.70;99.90
21666;DHT22;10994;45.486;9.190;2023-01-19T12:18:21;5.50;99.90
21666;DHT22;10994;45.486;9.190;2023-01-19T12:20:51;5.40;99.90
21666;DHT22;10994;45.486;9.190;2023-01-19T12:23:21;5.70;99.90
21666;DHT22;10994;45.486;9.190;2023-01-19T12:28:31;5.90;99.90
21666;DHT22;10994;45.486;9.190;2023-01-19T12:31:00;6.00;99.90
21666;DHT22;10994;45.486;9.190;2023-01-19T12:33:37;6.10;99.90
21666;DHT22;10994;45.486;9.190;2023-01-19T12:41:37;6.30;99.90
21666;DHT22;10994;45.486;9.190;2023-01-19T12:46:58;5.90;99.90
21666;DHT22;10994;45.486;9.190;2023-01-19T12:49:43;6.00;99.90
21666;DHT22;10994;45.486;9.190;2023-01-19T12:52:18;5.70;99.90
21666;DHT22;10994;45.486;9.190;2023-01-19T12:57:32;5.30;99.90
21666;DHT22;10994;45.486;9.190;2023-01-19T13:00:06;5.50;99.90
21666;DHT22;10994;45.486;9.190;2023-01-19T13:02:44;5.40;99.90
21666;DHT22;10994;45.486;9.190;2023-01-19T13:08:15;5.50;99.90
21666;DHT22;10994;45.486;9.190;2023-01-19T13:13:36;5.30;99.90
21666;DHT22;10994;45.486;9.190;2023-01-19T13:18:49;5.50;99.90
21666;DHT22;10994;45.486;9.190;2023-01-19T13:21:33;5.70;99.90
21666;DHT22;10994;45.486;9.190;2023-01-19T13:24:01;5.90;99.90
21666;DHT22;10994;45.486;9.190;2023-01-19T13:26:32;6.10;99.90
21666;DHT22;10994;45.486;9.190;2023-01-19T13:29:09;5.90;99.90
21666;DHT22;10994;45.486;9.190;2023-01-19T13:31:40;5.60;99.90
21666;DHT22;10994;45.486;9.190;2023-01-19T13:34:13;5.50;99.90
21666;DHT22;10994;45.486;9.190;2023-01-19T13:36:43;5.60;99.90
21666;DHT22;10994;45.486;9.190;2023-01-19T13:39:16;5.90;99.90
21666;DHT22;10994;45.486;9.190;2023-01-19T13:41:45;5.80;99.90
21666;DHT22;10994;45.486;9.190;2023-01-19T13:44:22;5.90;99.90
21666;DHT22;10994;45.486;9.190;2023-01-19T13:46:49;6.00;99.90
21666;DHT22;10994;45.486;9.190;2023-01-19T13:49:20;5.80;99.90
21666;DHT22;10994;45.486;9.190;2023-01-19T13:52:03;6.00;99.90
21666;DHT22;10994;45.486;9.190;2023-01-19T13:54:29;6.10;99.90
21666;DHT22;10994;45.486;9.190;2023-01-19T13:56:54;6.20;99.90
21666;DHT22;10994;45.486;9.190;2023-01-19T13:59:20;6.30;99.90
21666;DHT22;10994;45.486;9.190;2023-01-19T14:01:46;6.20;99.90
21666;DHT22;10994;45.486;9.190;2023-01-19T14:04:25;6.20;99.90
21666;DHT22;10994;45.486;9.190;2023-01-19T14:06:51;6.30;99.90
21666;DHT22;10994;45.486;9.190;2023-01-19T14:09:20;6.40;99.90
21666;DHT22;10994;45.486;9.190;2023-01-19T14:12:13;6.40;99.90
21666;DHT22;10994;45.486;9.190;2023-01-19T14:14:41;6.50;99.90
21666;DHT22;10994;45.486;9.190;2023-01-19T14:17:33;6.20;99.90
21666;DHT22;10994;45.486;9.190;2023-01-19T14:19:59;6.00;99.90
21666;DHT22;10994;45.486;9.190;2023-01-19T14:22:40;6.10;99.90
21666;DHT22;10994;45.486;9.190;2023-01-19T14:25:27;6.00;99.90
21666;DHT22;10994;45.486;9.190;2023-01-19T14:28:45;5.90;99.90
21666;DHT22;10994;45.486;9.190;2023-01-19T14:31:19;5.80;99.90
21666;DHT22;10994;45.486;9.190;2023-01-19T14:33:49;5.90;99.90
21666;DHT22;10994;45.486;9.190;2023-01-19T14:38:53;5.60;99.90
21666;DHT22;10994;45.486;9.190;2023-01-19T14:41:35;5.70;99.90
21666;DHT22;10994;45.486;9.190;2023-01-19T14:44:01;5.70;99.90
21666;DHT22;10994;45.486;9.190;2023-01-19T14:46:32;5.70;99.90
21666;DHT22;10994;45.486;9.190;2023-01-19T14:49:02;5.50;99.90
21666;DHT22;10994;45.486;9.190;2023-01-19T14:51:29;5.40;99.90
21666;DHT22;10994;45.486;9.190;2023-01-19T14:53:57;5.40;99.90
21666;DHT22;10994;45.486;9.190;2023-01-19T14:56:28;5.50;99.90
21666;DHT22;10994;45.486;9.190;2023-01-19T14:58:56;5.60;99.90
21666;DHT22;10994;45.486;9.190;2023-01-19T15:01:22;5.80;99.90
21666;DHT22;10994;45.486;9.190;2023-01-19T15:03:48;5.90;99.90
21666;DHT22;10994;45.486;9.190;2023-01-19T15:06:16;6.20;99.90
21666;DHT22;10994;45.486;9.190;2023-01-19T15:08:42;6.30;99.90
21666;DHT22;10994;45.486;9.190;2023-01-19T15:11:11;6.40;99.90
21666;DHT22;10994;45.486;9.190;2023-01-19T15:13:42;6.60;99.90
21666;DHT22;10994;45.486;9.190;2023-01-19T15:16:08;6.70;99.90
21666;DHT22;10994;45.486;9.190;2023-01-19T15:18:34;6.70;99.90
21666;DHT22;10994;45.486;9.190;2023-01-19T15:21:01;6.60;99.90
21666;DHT22;10994;45.486;9.190;2023-01-19T15:23:31;6.60;99.90
21666;DHT22;10994;45.486;9.190;2023-01-19T15:26:01;6.70;99.90
21666;DHT22;10994;45.486;9.190;2023-01-19T15:28:27;6.60;99.90
21666;DHT22;10994;45.486;9.190;2023-01-19T15:30:57;6.70;99.90
21666;DHT22;10994;45.486;9.190;2023-01-19T15:33:26;6.90;99.90
21666;DHT22;10994;45.486;9.190;2023-01-19T15:35:52;7.00;99.90
21666;DHT22;10994;45.486;9.190;2023-01-19T15:38:18;6.80;99.90
21666;DHT22;10994;45.486;9.190;2023-01-19T15:40:45;6.70;99.90
21666;DHT22;10994;45.486;9.190;2023-01-19T15:43:11;6.60;99.90
21666;DHT22;10994;45.486;9.190;2023-01-19T15:45:42;6.60;99.90
21666;DHT22;10994;45.486;9.190;2023-01-19T15:48:10;6.70;99.90
21666;DHT22;10994;45.486;9.190;2023-01-19T15:50:42;6.70;99.90
21666;DHT22;10994;45.486;9.190;2023-01-19T15:53:16;6.80;99.90
21666;DHT22;10994;45.486;9.190;2023-01-19T15:55:42;6.80;99.90
21666;DHT22;10994;45.486;9.190;2023-01-19T15:58:09;6.90;99.90
21666;DHT22;10994;45.486;9.190;2023-01-19T16:00:35;6.90;99.90
21666;DHT22;10994;45.486;9.190;2023-01-19T16:03:01;7.00;99.90
21666;DHT22;10994;45.486;9.190;2023-01-19T16:05:28;7.00;99.90
21666;DHT22;10994;45.486;9.190;2023-01-19T16:07:54;6.90;99.90
21666;DHT22;10994;45.486;9.190;2023-01-19T16:10:20;7.00;99.90
21666;DHT22;10994;45.486;9.190;2023-01-19T16:12:46;6.90;99.90
21666;DHT22;10994;45.486;9.190;2023-01-19T16:15:15;7.00;99.90
21666;DHT22;10994;45.486;9.190;2023-01-19T16:17:42;7.00;99.90
21666;DHT22;10994;45.486;9.190;2023-01-19T16:20:08;6.90;99.90
21666;DHT22;10994;45.486;9.190;2023-01-19T16:22:35;7.00;99.90
21666;DHT22;10994;45.486;9.190;2023-01-19T16:25:01;7.10;99.90
21666;DHT22;10994;45.486;9.190;2023-01-19T16:27:27;7.20;99.90
21666;DHT22;10994;45.486;9.190;2023-01-19T16:29:52;7.30;99.90
21666;DHT22;10994;45.486;9.190;2023-01-19T16:32:18;7.40;99.90
21666;DHT22;10994;45.486;9.190;2023-01-19T16:34:44;7.30;99.90
21666;DHT22;10994;45.486;9.190;2023-01-19T16:37:10;7.30;99.90
21666;DHT22;10994;45.486;9.190;2023-01-19T16:39:36;7.30;99.90
21666;DHT22;10994;45.486;9.190;2023-01-19T16:42:02;7.00;99.90
21666;DHT22;10994;45.486;9.190;2023-01-19T16:44:27;6.90;99.90
21666;DHT22;10994;45.486;9.190;2023-01-19T16:46:53;7.00;99.90
21666;DHT22;10994;45.486;9.190;2023-01-19T16:49:22;7.10;99.90
21666;DHT22;10994;45.486;9.190;2023-01-19T16:51:49;7.10;99.90